Time;durP1;ratioP1;P1;durP2;ratioP2;P2;SDS_P1;SDS_P2;PMS_P1;PMS_P2;Temp;Humidity;BMP_temperature;BMP_pressure;BME280_temperature;BME280_humidity;BME280_pressure;Samples;Min_cycle;Max_cycle;Signal;HPM_P1;HPM_P2
2022/01/01 00:00:08;;;;;;;34.87;17.97;;;;;;;-1.99;100.00;98063.61;1696203;85;21075;-69
2022/01/01 00:02:41;;;;;;;37.97;19.27;;;;;;;-1.96;100.00;98070.78;1697869;84;21011;-70
2022/01/01 00:05:10;;;;;;;33.97;18.33;;;;;;;-1.94;100.00;98068.00;1718479;83;21066;-69
2022/01/01 00:07:40;;;;;;;35.80;18.90;;;;;;;-1.93;100.00;98069.66;1698240;84;21545;-68
2022/01/01 00:10:09;;;;;;;34.50;17.80;;;;;;;-1.94;100.00;98064.03;1672914;84;21061;-70
2022/01/01 00:12:36;;;;;;;33.30;17.83;;;;;;;-1.93;100.00;98064.36;1747050;82;21018;-69
2022/01/01 00:15:04;;;;;;;36.60;18.10;;;;;;;-1.93;100.00;98056.41;1727845;82;21032;-69
2022/01/01 00:17:37;;;;;;;35.93;17.67;;;;;;;-1.93;100.00;98057.27;1746765;82;21018;-69
2022/01/01 00:20:09;;;;;;;37.00;18.40;;;;;;;-1.90;100.00;98052.16;1728173;82;21053;-70
2022/01/01 00:22:37;;;;;;;37.37;19.40;;;;;;;-1.89;100.00;98042.39;1728186;82;21022;-68
2022/01/01 00:25:06;;;;;;;38.60;19.07;;;;;;;-1.88;100.00;98044.08;1747151;81;21034;-69
2022/01/01 00:27:35;;;;;;;38.90;19.10;;;;;;;-1.88;100.00;98039.61;1731283;82;20979;-68
2022/01/01 00:30:06;;;;;;;43.60;22.30;;;;;;;-1.87;100.00;98039.14;1747039;82;21101;-70
2022/01/01 00:32:35;;;;;;;44.83;21.37;;;;;;;-1.87;100.00;98031.20;1746939;82;21057;-69
2022/01/01 00:35:02;;;;;;;38.83;19.20;;;;;;;-1.88;100.00;98025.53;1728182;82;21057;-70
2022/01/01 00:37:29;;;;;;;41.40;20.73;;;;;;;-1.87;100.00;98026.72;1746878;82;21090;-70
2022/01/01 00:39:58;;;;;;;37.67;20.00;;;;;;;-1.88;100.00;98021.56;1727952;82;21037;-70
2022/01/01 00:42:29;;;;;;;38.83;19.63;;;;;;;-1.88;100.00;98015.77;1746793;82;21046;-69
2022/01/01 00:44:58;;;;;;;36.57;19.43;;;;;;;-1.86;100.00;98014.30;1747214;82;21488;-69
2022/01/01 00:47:25;;;;;;;35.07;18.00;;;;;;;-1.86;100.00;98002.38;1746768;82;21042;-69
2022/01/01 00:49:52;;;;;;;35.77;17.63;;;;;;;-1.85;100.00;97998.27;1727911;82;20994;-68
2022/01/01 00:52:19;;;;;;;35.07;17.67;;;;;;;-1.84;100.00;98003.07;1727967;82;21010;-70
2022/01/01 00:54:46;;;;;;;38.30;19.43;;;;;;;-1.85;100.00;97990.33;1727871;82;21025;-70
2022/01/01 00:57:14;;;;;;;37.03;19.63;;;;;;;-1.84;100.00;97979.23;1727974;82;21021;-70
2022/01/01 00:59:41;;;;;;;37.13;20.63;;;;;;;-1.83;100.00;97976.94;1728340;82;21045;-71
2022/01/01 01:02:08;;;;;;;36.40;18.20;;;;;;;-1.85;100.00;97968.30;1746868;82;21031;-70
2022/01/01 01:04:35;;;;;;;40.90;19.83;;;;;;;-1.85;100.00;97960.36;1752784;81;21077;-70
2022/01/01 01:07:02;;;;;;;35.43;18.00;;;;;;;-1.87;100.00;97955.20;1752851;82;21566;-70
2022/01/01 01:09:29;;;;;;;31.90;16.47;;;;;;;-1.85;100.00;97951.08;1751140;81;21071;-70
2022/01/01 01:11:56;;;;;;;37.27;18.83;;;;;;;-1.85;100.00;97943.14;1749740;82;21474;-68
2022/01/01 01:14:27;;;;;;;34.27;18.83;;;;;;;-1.84;100.00;97939.48;1749752;81;21084;-70
2022/01/01 01:16:55;;;;;;;34.40;18.33;;;;;;;-1.83;100.00;97934.05;1749994;81;21004;-70
2022/01/01 01:19:22;;;;;;;35.17;18.20;;;;;;;-1.82;100.00;97929.61;1739319;82;21067;-70
2022/01/01 01:21:49;;;;;;;30.53;16.80;;;;;;;-1.82;100.00;97904.44;1750000;82;20996;-70
2022/01/01 01:24:17;;;;;;;33.30;16.83;;;;;;;-1.83;100.00;97910.20;1749764;81;21005;-69
2022/01/01 01:26:49;;;;;;;33.20;17.57;;;;;;;-1.82;100.00;97905.27;1750104;81;21040;-69
2022/01/01 01:29:13;;;;;;;31.73;16.73;;;;;;;-1.80;100.00;97899.83;1748551;82;21087;-68
2022/01/01 01:31:40;;;;;;;32.70;16.93;;;;;;;-1.79;100.00;97896.18;1739201;82;21040;-69
2022/01/01 01:34:08;;;;;;;32.70;17.03;;;;;;;-1.78;100.00;97884.11;1739290;82;21048;-70
2022/01/01 01:36:36;;;;;;;31.30;16.50;;;;;;;-1.76;100.00;97878.17;1749742;82;21466;-70
2022/01/01 01:39:03;;;;;;;30.00;15.50;;;;;;;-1.73;100.00;97870.44;1749683;82;21072;-70
2022/01/01 01:41:31;;;;;;;33.57;17.67;;;;;;;-1.70;100.00;97867.98;1750074;82;21036;-70
2022/01/01 01:43:59;;;;;;;30.90;16.33;;;;;;;-1.70;100.00;97862.67;1739274;81;21044;-70
2022/01/01 01:46:26;;;;;;;30.70;16.67;;;;;;;-1.68;100.00;97858.91;1739813;81;21027;-69
2022/01/01 01:48:54;;;;;;;31.63;17.10;;;;;;;-1.67;100.00;97847.31;1749937;81;21060;-71
2022/01/01 01:51:21;;;;;;;29.33;15.57;;;;;;;-1.63;100.00;97838.58;1739226;82;21048;-68
2022/01/01 01:53:48;;;;;;;30.10;15.63;;;;;;;-1.60;100.00;97831.17;1749853;82;21021;-71
2022/01/01 01:56:16;;;;;;;28.67;14.87;;;;;;;-1.57;100.00;97829.55;1739294;82;21021;-70
2022/01/01 01:58:43;;;;;;;29.77;15.00;;;;;;;-1.53;100.00;97829.59;1750216;82;21044;-70
2022/01/01 02:03:43;;;;;;;27.10;15.03;;;;;;;-1.46;100.00;97826.36;1705875;84;21039;-70
2022/01/01 02:06:10;;;;;;;28.77;15.60;;;;;;;-1.44;100.00;97809.31;1706222;84;21035;-70
2022/01/01 02:08:37;;;;;;;31.57;16.53;;;;;;;-1.41;100.00;97808.19;1705498;84;21034;-69
2022/01/01 02:11:04;;;;;;;28.97;15.23;;;;;;;-1.41;100.00;97801.06;1739328;81;21024;-69
2022/01/01 02:18:52;;;;;;;28.40;14.77;;;;;;;-1.31;100.00;97781.13;1744374;82;21082;-70
2022/01/01 02:21:20;;;;;;;28.00;14.97;;;;;;;-1.29;100.00;97767.69;1697870;83;21010;-69
2022/01/01 02:23:48;;;;;;;27.03;14.47;;;;;;;-1.26;100.00;97760.77;1720743;83;21589;-70
2022/01/01 02:26:16;;;;;;;27.67;14.97;;;;;;;-1.25;100.00;97750.51;1723138;83;20981;-68
2022/01/01 02:28:46;;;;;;;29.70;15.47;;;;;;;-1.22;100.00;97751.04;1722234;83;21029;-69
2022/01/01 02:31:17;;;;;;;29.80;15.03;;;;;;;-1.22;100.00;97741.76;1721821;83;21045;-69
2022/01/01 02:33:44;;;;;;;29.53;15.90;;;;;;;-1.21;100.00;97725.34;1722125;83;21538;-68
2022/01/01 02:36:11;;;;;;;30.07;15.83;;;;;;;-1.21;100.00;97721.36;1722189;83;21001;-68
2022/01/01 02:38:39;;;;;;;26.30;14.53;;;;;;;-1.20;100.00;97717.24;1721881;83;21534;-69
2022/01/01 02:41:06;;;;;;;26.60;14.27;;;;;;;-1.18;100.00;97699.85;1721781;83;21076;-69
2022/01/01 02:43:46;;;;;;;27.80;14.80;;;;;;;-1.16;100.00;97688.09;1721423;83;21005;-69
2022/01/01 02:46:14;;;;;;;29.23;14.17;;;;;;;-1.15;100.00;97691.09;1722784;83;21005;-70
2022/01/01 02:48:44;;;;;;;26.53;14.13;;;;;;;-1.15;100.00;97690.27;1721931;83;21048;-68
2022/01/01 02:51:10;;;;;;;28.80;15.07;;;;;;;-1.13;100.00;97682.98;1722831;83;21001;-69
2022/01/01 02:53:41;;;;;;;29.27;14.67;;;;;;;-1.12;100.00;97674.03;1715856;83;21014;-67
2022/01/01 02:56:08;;;;;;;28.70;15.60;;;;;;;-1.09;100.00;97674.23;1715464;84;21078;-69
2022/01/01 02:58:35;;;;;;;25.97;14.47;;;;;;;-1.06;100.00;97668.59;1715645;83;21026;-69
2022/01/01 03:01:02;;;;;;;27.60;15.23;;;;;;;-1.06;100.00;97667.27;1690917;84;21057;-69
2022/01/01 03:03:29;;;;;;;29.07;15.27;;;;;;;-1.07;100.00;97658.48;1695195;83;21455;-70
2022/01/01 03:05:56;;;;;;;28.60;15.40;;;;;;;-1.04;100.00;97656.03;1698143;83;21045;-69
2022/01/01 03:08:23;;;;;;;28.43;15.20;;;;;;;-1.03;100.00;97651.87;1719040;83;21120;-69
2022/01/01 03:10:50;;;;;;;29.17;15.43;;;;;;;-1.01;100.00;97649.06;1721591;83;21053;-69
2022/01/01 03:13:18;;;;;;;24.70;12.90;;;;;;;-1.00;100.00;97644.93;1636530;86;21070;-69
2022/01/01 03:15:45;;;;;;;26.87;14.33;;;;;;;-0.97;100.00;97636.67;1636446;86;21034;-70
2022/01/01 03:18:12;;;;;;;26.27;14.27;;;;;;;-0.94;100.00;97628.88;1685034;84;21053;-69
2022/01/01 03:20:39;;;;;;;27.53;14.67;;;;;;;-0.92;100.00;97622.95;1752713;81;20988;-70
2022/01/01 03:23:07;;;;;;;25.07;13.60;;;;;;;-0.88;100.00;97611.52;1752803;82;21008;-69
2022/01/01 03:25:35;;;;;;;27.50;14.70;;;;;;;-0.88;100.00;97601.73;1743891;82;21052;-70
2022/01/01 03:28:02;;;;;;;24.67;13.47;;;;;;;-0.86;100.00;97599.75;1752625;80;21016;-70
2022/01/01 03:30:29;;;;;;;23.87;12.93;;;;;;;-0.85;100.00;97593.46;1752380;82;21012;-69
2022/01/01 03:32:56;;;;;;;25.23;13.43;;;;;;;-0.83;100.00;97586.17;1752513;81;21524;-71
2022/01/01 03:35:23;;;;;;;23.83;13.20;;;;;;;-0.84;100.00;97571.23;1744015;80;21506;-70
2022/01/01 03:37:50;;;;;;;24.23;12.63;;;;;;;-0.82;100.00;97571.89;1744209;82;21016;-69
2022/01/01 03:40:18;;;;;;;23.13;12.43;;;;;;;-0.82;100.00;97567.91;1752399;82;21028;-69
2022/01/01 03:42:45;;;;;;;20.83;11.57;;;;;;;-0.81;100.00;97564.28;1744375;82;21501;-70
2022/01/01 03:45:12;;;;;;;24.10;12.50;;;;;;;-0.79;100.00;97544.23;1752579;82;21048;-68
2022/01/01 03:47:40;;;;;;;20.50;10.90;;;;;;;-0.78;100.00;97541.42;1752898;81;21020;-70
2022/01/01 03:50:08;;;;;;;21.17;11.03;;;;;;;-0.76;100.00;97535.95;1752603;81;21024;-70
2022/01/01 03:52:44;;;;;;;21.77;11.70;;;;;;;-0.75;100.00;97523.50;1698721;83;21076;-69
2022/01/01 03:55:14;;;;;;;22.07;11.23;;;;;;;-0.76;100.00;97517.38;1706080;83;20998;-70
2022/01/01 03:57:41;;;;;;;22.30;11.03;;;;;;;-0.75;100.00;97507.58;1682650;84;21026;-70
2022/01/01 04:00:11;;;;;;;19.80;10.47;;;;;;;-0.73;100.00;97493.15;1682071;84;21054;-70
2022/01/01 04:02:41;;;;;;;21.83;10.63;;;;;;;-0.71;100.00;97483.70;1705774;84;21082;-70
2022/01/01 04:05:09;;;;;;;22.33;11.80;;;;;;;-0.69;100.00;97472.42;1724564;83;21012;-70
2022/01/01 04:07:38;;;;;;;18.33;10.43;;;;;;;-0.67;100.00;97471.79;1724001;83;20996;-69
2022/01/01 04:10:07;;;;;;;19.97;10.40;;;;;;;-0.65;100.00;97473.78;1715271;83;21527;-70
2022/01/01 04:12:34;;;;;;;20.77;11.07;;;;;;;-0.65;100.00;97463.98;1706795;83;21074;-69
2022/01/01 04:15:02;;;;;;;19.77;10.50;;;;;;;-0.62;100.00;97469.45;1706657;83;21069;-70
2022/01/01 04:17:35;;;;;;;19.30;10.53;;;;;;;-0.63;100.00;97458.02;1706178;83;20995;-70
2022/01/01 04:20:00;;;;;;;20.03;10.20;;;;;;;-0.65;100.00;97461.33;1686240;84;21069;-71
2022/01/01 04:22:29;;;;;;;17.40;9.10;;;;;;;-0.63;100.00;97463.32;1706285;83;21090;-70
2022/01/01 04:24:56;;;;;;;19.37;10.00;;;;;;;-0.62;100.00;97459.69;1686334;84;20998;-69
2022/01/01 04:27:24;;;;;;;16.63;9.03;;;;;;;-0.62;100.00;97462.34;1708693;81;21062;-68
2022/01/01 04:29:51;;;;;;;18.33;8.53;;;;;;;-0.60;100.00;97454.22;1686627;84;20974;-71
2022/01/01 04:32:18;;;;;;;16.13;8.53;;;;;;;-0.59;100.00;97458.52;1686268;84;21021;-71
2022/01/01 04:34:45;;;;;;;20.80;10.57;;;;;;;-0.58;100.00;97450.39;1685820;84;21503;-70
2022/01/01 04:37:15;;;;;;;18.60;9.70;;;;;;;-0.57;100.00;97441.92;1705960;84;21026;-71
2022/01/01 04:39:41;;;;;;;19.23;9.83;;;;;;;-0.56;100.00;97442.77;1706410;84;21024;-70
2022/01/01 04:42:08;;;;;;;18.57;9.53;;;;;;;-0.57;100.00;97440.59;1686133;84;21133;-71
2022/01/01 04:44:37;;;;;;;19.37;10.27;;;;;;;-0.56;100.00;97429.50;1706489;84;20991;-69
2022/01/01 04:47:05;;;;;;;21.70;10.20;;;;;;;-0.56;100.00;97429.50;1685975;84;21507;-69
2022/01/01 04:49:32;;;;;;;22.73;11.10;;;;;;;-0.55;100.00;97426.66;1685972;84;21562;-69
2022/01/01 04:51:59;;;;;;;19.67;10.80;;;;;;;-0.55;100.00;97429.31;1686013;84;21553;-70
2022/01/01 04:54:27;;;;;;;20.93;11.30;;;;;;;-0.55;100.00;97431.14;1706183;83;20991;-69
2022/01/01 04:56:54;;;;;;;22.73;11.87;;;;;;;-0.55;100.00;97437.78;1686538;84;21033;-70
2022/01/01 04:59:21;;;;;;;22.83;11.67;;;;;;;-0.55;100.00;97439.93;1686228;84;21002;-71
2022/01/01 05:01:47;;;;;;;19.87;10.47;;;;;;;-0.55;100.00;97442.58;1706207;84;21065;-71
2022/01/01 05:04:15;;;;;;;24.77;13.03;;;;;;;-0.54;100.00;97434.97;1711720;84;21048;-70
2022/01/01 05:06:42;;;;;;;20.97;10.73;;;;;;;-0.52;100.00;97441.44;1691879;84;21565;-70
2022/01/01 05:09:09;;;;;;;20.70;10.90;;;;;;;-0.52;100.00;97430.31;1691886;84;20977;-69
2022/01/01 05:11:36;;;;;;;19.23;10.07;;;;;;;-0.51;100.00;97429.34;1680092;85;21574;-70
2022/01/01 05:14:03;;;;;;;19.90;10.00;;;;;;;-0.50;100.00;97435.47;1715343;83;20989;-70
2022/01/01 05:16:31;;;;;;;19.67;9.60;;;;;;;-0.50;100.00;97432.30;1714526;83;21060;-71
2022/01/01 05:18:58;;;;;;;18.40;9.37;;;;;;;-0.48;100.00;97420.20;1714760;84;21036;-70
2022/01/01 05:21:30;;;;;;;16.17;8.90;;;;;;;-0.49;100.00;97414.06;1714669;84;21083;-72
2022/01/01 05:23:54;;;;;;;18.23;8.83;;;;;;;-0.49;100.00;97411.41;1710667;84;21095;-68
2022/01/01 05:26:21;;;;;;;18.60;9.27;;;;;;;-0.50;100.00;97405.76;1714642;83;21067;-70
2022/01/01 05:28:49;;;;;;;17.07;9.17;;;;;;;-0.48;100.00;97405.59;1714798;84;20997;-72
2022/01/01 05:31:17;;;;;;;17.77;8.67;;;;;;;-0.50;100.00;97393.81;1714847;83;21024;-69
2022/01/01 05:33:44;;;;;;;16.73;8.53;;;;;;;-0.49;100.00;97398.64;1686864;84;21067;-69
2022/01/01 05:36:11;;;;;;;18.97;9.13;;;;;;;-0.50;100.00;97394.32;1686966;84;21039;-70
2022/01/01 05:38:43;;;;;;;17.03;8.93;;;;;;;-0.51;100.00;97386.86;1653848;85;21549;-69
2022/01/01 05:41:10;;;;;;;17.27;9.43;;;;;;;-0.49;100.00;97388.84;1635340;87;21074;-69
2022/01/01 05:43:37;;;;;;;16.17;8.47;;;;;;;-0.47;100.00;97380.22;1694585;84;21088;-70
2022/01/01 05:46:04;;;;;;;17.73;9.30;;;;;;;-0.47;100.00;97380.22;1714730;84;20993;-70
2022/01/01 05:48:32;;;;;;;16.73;8.67;;;;;;;-0.47;100.00;97389.51;1714855;83;21029;-69
2022/01/01 05:51:00;;;;;;;15.80;8.40;;;;;;;-0.46;100.00;97386.34;1686813;84;21072;-69
2022/01/01 05:53:27;;;;;;;18.07;8.50;;;;;;;-0.45;100.00;97391.49;1686985;84;21068;-70
2022/01/01 05:55:54;;;;;;;14.30;7.90;;;;;;;-0.43;100.00;97393.98;1714675;84;21015;-71
2022/01/01 05:58:21;;;;;;;15.57;7.93;;;;;;;-0.42;100.00;97384.53;1714780;84;21528;-70
2022/01/01 06:00:48;;;;;;;14.70;7.77;;;;;;;-0.40;100.00;97389.17;1686891;84;21028;-69
2022/01/01 06:03:17;;;;;;;16.63;8.40;;;;;;;-0.37;100.00;97385.84;1693482;83;21008;-70
2022/01/01 06:05:45;;;;;;;15.70;8.00;;;;;;;-0.39;100.00;97377.56;1721471;83;21016;-70
2022/01/01 06:08:12;;;;;;;15.80;8.10;;;;;;;-0.37;100.00;97385.84;1716858;82;21054;-71
2022/01/01 06:10:39;;;;;;;17.23;7.97;;;;;;;-0.38;100.00;97377.06;1702282;82;21027;-71
2022/01/01 06:13:07;;;;;;;14.40;7.47;;;;;;;-0.37;100.00;97373.90;1720180;82;21034;-71
2022/01/01 06:15:35;;;;;;;14.27;7.17;;;;;;;-0.39;100.00;97382.88;1740830;82;20979;-70
2022/01/01 06:18:04;;;;;;;16.83;8.00;;;;;;;-0.36;100.00;97389.67;1740615;82;21026;-70
2022/01/01 06:20:32;;;;;;;15.70;8.10;;;;;;;-0.34;100.00;97396.97;1720253;82;21003;-72
2022/01/01 06:23:01;;;;;;;14.63;8.07;;;;;;;-0.32;100.00;97395.47;1720286;82;20990;-69
2022/01/01 06:25:29;;;;;;;13.83;7.00;;;;;;;-0.30;100.00;97389.49;1721070;82;21534;-70
2022/01/01 06:27:56;;;;;;;15.13;7.13;;;;;;;-0.28;100.00;97387.53;1744043;82;20943;-70
2022/01/01 06:30:23;;;;;;;13.57;7.03;;;;;;;-0.27;100.00;97378.03;1740746;82;21029;-69
2022/01/01 06:32:52;;;;;;;15.00;7.93;;;;;;;-0.27;100.00;97379.36;1740608;82;21058;-69
2022/01/01 06:35:19;;;;;;;12.87;6.90;;;;;;;-0.27;100.00;97373.23;1740805;82;21483;-70
2022/01/01 06:37:46;;;;;;;15.47;8.00;;;;;;;-0.27;100.00;97373.23;1720235;82;21558;-71
2022/01/01 06:40:14;;;;;;;13.23;7.17;;;;;;;-0.27;100.00;97370.58;1740527;82;21554;-69
2022/01/01 06:42:41;;;;;;;14.43;7.83;;;;;;;-0.29;100.00;97370.73;1740528;82;21034;-70
2022/01/01 06:45:09;;;;;;;14.07;7.37;;;;;;;-0.30;100.00;97364.27;1740905;82;21505;-70
2022/01/01 06:47:37;;;;;;;13.77;7.27;;;;;;;-0.27;100.00;97351.98;1740669;82;21513;-70
2022/01/01 06:50:07;;;;;;;13.90;7.50;;;;;;;-0.28;100.00;97353.00;1740593;82;21026;-70
2022/01/01 06:52:44;;;;;;;13.60;7.90;;;;;;;-0.27;100.00;97357.30;1740542;82;21022;-70
2022/01/01 06:55:12;;;;;;;14.43;8.00;;;;;;;-0.28;100.00;97349.84;1718172;82;20995;-68
2022/01/01 06:57:40;;;;;;;15.23;8.27;;;;;;;-0.27;100.00;97344.02;1740702;82;21034;-70
2022/01/01 07:00:08;;;;;;;16.40;8.47;;;;;;;-0.27;100.00;97341.36;1720088;82;20974;-69
2022/01/01 07:02:40;;;;;;;15.00;8.27;;;;;;;-0.29;100.00;97336.73;1742997;82;20987;-71
2022/01/01 07:05:08;;;;;;;13.67;8.00;;;;;;;-0.27;100.00;97329.41;1750678;82;21018;-71
2022/01/01 07:07:37;;;;;;;16.37;8.20;;;;;;;-0.28;100.00;97316.64;1729909;82;21526;-70
2022/01/01 07:10:05;;;;;;;14.43;7.90;;;;;;;-0.28;100.00;97313.17;1751903;82;21007;-69
2022/01/01 07:12:36;;;;;;;17.07;8.27;;;;;;;-0.29;100.00;97300.88;1691749;84;21048;-71
2022/01/01 07:15:05;;;;;;;16.83;8.20;;;;;;;-0.31;100.00;97301.05;1676491;85;21065;-71
2022/01/01 07:17:32;;;;;;;15.40;7.93;;;;;;;-0.31;100.00;97298.39;1676061;86;21112;-70
2022/01/01 07:19:59;;;;;;;16.23;8.90;;;;;;;-0.28;100.00;97295.41;1621444;88;21566;-71
2022/01/01 07:22:28;;;;;;;16.13;8.73;;;;;;;-0.28;100.00;97298.05;1649460;86;21074;-69
2022/01/01 07:24:55;;;;;;;16.83;8.73;;;;;;;-0.28;100.00;97295.91;1599800;88;21093;-72
2022/01/01 07:27:23;;;;;;;16.40;8.83;;;;;;;-0.28;100.00;97301.22;1600183;88;21086;-69
2022/01/01 07:29:51;;;;;;;17.67;9.70;;;;;;;-0.29;100.00;97298.22;1623824;88;21068;-70
2022/01/01 07:32:18;;;;;;;20.23;10.27;;;;;;;-0.28;100.00;97303.87;1600123;88;21579;-70
2022/01/01 07:34:45;;;;;;;19.37;9.87;;;;;;;-0.28;100.00;97302.04;1622391;88;21142;-70
2022/01/01 07:37:12;;;;;;;19.53;9.93;;;;;;;-0.29;100.00;97292.91;1621662;88;21119;-71
2022/01/01 07:39:39;;;;;;;21.20;11.73;;;;;;;-0.28;100.00;97298.05;1624059;88;21092;-70
2022/01/01 07:42:07;;;;;;;20.43;11.90;;;;;;;-0.27;100.00;97294.89;1623986;88;21048;-70
2022/01/01 07:44:34;;;;;;;22.87;12.73;;;;;;;-0.25;100.00;97305.69;1623743;88;21104;-70
2022/01/01 07:47:02;;;;;;;20.97;11.47;;;;;;;-0.24;100.00;97305.19;1623936;88;21060;-70
2022/01/01 07:49:29;;;;;;;20.70;10.43;;;;;;;-0.24;100.00;97301.20;1623579;88;21032;-71
2022/01/01 07:51:56;;;;;;;19.40;10.80;;;;;;;-0.22;100.00;97301.34;1623913;88;21561;-70
2022/01/01 07:54:24;;;;;;;21.07;11.10;;;;;;;-0.20;100.00;97291.89;1623779;88;21139;-70
2022/01/01 07:56:50;;;;;;;21.47;11.90;;;;;;;-0.21;100.00;97292.39;1599956;88;21083;-70
2022/01/01 07:59:18;;;;;;;20.80;11.03;;;;;;;-0.19;100.00;97290.90;1600228;88;21063;-70
2022/01/01 08:01:44;;;;;;;20.03;11.03;;;;;;;-0.18;100.00;97301.02;1602708;88;21084;-70
2022/01/01 08:04:12;;;;;;;22.83;12.80;;;;;;;-0.17;100.00;97298.19;1610485;88;21095;-70
2022/01/01 08:06:39;;;;;;;24.30;13.63;;;;;;;-0.16;100.00;97291.89;1610859;88;21191;-70
2022/01/01 08:09:06;;;;;;;24.70;13.73;;;;;;;-0.14;100.00;97289.89;1624595;87;21541;-70
2022/01/01 08:11:33;;;;;;;24.50;12.67;;;;;;;-0.13;100.00;97290.71;1642677;87;21078;-67
2022/01/01 08:14:00;;;;;;;22.20;11.80;;;;;;;-0.13;100.00;97284.89;1634450;87;21066;-70
2022/01/01 08:16:27;;;;;;;23.40;12.43;;;;;;;-0.11;100.00;97282.07;1622332;87;21572;-71
2022/01/01 08:18:54;;;;;;;22.30;12.70;;;;;;;-0.12;100.00;97281.25;1647443;86;21093;-70
2022/01/01 08:21:21;;;;;;;22.37;12.70;;;;;;;-0.13;100.00;97282.23;1705486;84;21018;-69
2022/01/01 08:23:49;;;;;;;22.97;12.70;;;;;;;-0.10;100.00;97276.59;1705307;84;21031;-71
2022/01/01 08:26:16;;;;;;;25.47;13.33;;;;;;;-0.09;100.00;97268.97;1686714;84;21030;-68
2022/01/01 08:28:43;;;;;;;24.93;13.97;;;;;;;-0.06;100.00;97268.59;1687349;85;21065;-69
2022/01/01 08:31:18;;;;;;;21.53;12.60;;;;;;;-0.02;100.00;97275.72;1680358;85;21078;-69
2022/01/01 08:33:45;;;;;;;22.33;12.67;;;;;;;0.01;100.00;97272.73;1680065;85;21070;-70
2022/01/01 08:36:13;;;;;;;21.27;11.80;;;;;;;0.03;100.00;97260.61;1680298;85;21054;-69
2022/01/01 08:38:40;;;;;;;22.83;12.30;;;;;;;0.01;100.00;97259.95;1660455;85;21090;-69
2022/01/01 08:41:07;;;;;;;21.30;12.00;;;;;;;-0.02;100.00;97246.50;1680081;85;21086;-69
2022/01/01 08:43:34;;;;;;;22.30;11.83;;;;;;;-0.02;100.00;97249.16;1661250;85;21027;-69
2022/01/01 08:46:01;;;;;;;20.57;10.77;;;;;;;0.01;100.00;97252.80;1660386;85;21062;-69
2022/01/01 08:48:29;;;;;;;19.63;10.40;;;;;;;0.04;100.00;97245.83;1659996;85;21054;-70
2022/01/01 08:50:56;;;;;;;26.53;11.63;;;;;;;0.07;100.00;97245.97;1661032;85;21535;-69
2022/01/01 08:53:23;;;;;;;24.17;12.23;;;;;;;0.02;100.00;97254.47;1680148;85;21030;-68
2022/01/01 08:55:50;;;;;;;23.10;12.13;;;;;;;0.01;100.00;97260.77;1680142;85;21023;-68
2022/01/01 08:58:18;;;;;;;19.10;10.33;;;;;;;0.01;100.00;97255.46;1679877;85;21054;-70
2022/01/01 09:00:45;;;;;;;22.63;11.37;;;;;;;0.03;100.00;97255.30;1660652;85;21065;-68
2022/01/01 09:03:19;;;;;;;21.37;10.70;;;;;;;0.04;100.00;97254.30;1666487;85;21071;-68
2022/01/01 09:05:46;;;;;;;21.67;12.43;;;;;;;0.06;100.00;97255.78;1656303;86;21026;-70
2022/01/01 09:08:14;;;;;;;21.13;11.17;;;;;;;0.08;100.00;97257.75;1656804;87;21530;-69
2022/01/01 09:10:45;;;;;;;21.40;11.20;;;;;;;0.10;100.00;97250.44;1660968;84;21045;-70
2022/01/01 09:13:12;;;;;;;20.53;11.13;;;;;;;0.11;100.00;97249.95;1750418;81;20985;-70
2022/01/01 09:15:40;;;;;;;20.23;10.93;;;;;;;0.13;100.00;97244.78;1739212;82;21036;-71
2022/01/01 09:18:09;;;;;;;17.97;9.90;;;;;;;0.15;100.00;97246.76;1749741;81;21518;-69
2022/01/01 09:20:37;;;;;;;22.20;11.27;;;;;;;0.14;100.00;97249.11;1749517;81;21568;-69
2022/01/01 09:23:06;;;;;;;18.13;9.53;;;;;;;0.13;100.00;97247.95;1749598;81;21064;-70
2022/01/01 09:25:33;;;;;;;18.67;10.00;;;;;;;0.15;100.00;97231.33;1749473;82;21079;-69
2022/01/01 09:28:01;;;;;;;18.67;10.10;;;;;;;0.15;100.00;97241.44;1749474;81;21490;-69
2022/01/01 09:30:28;;;;;;;21.30;10.73;;;;;;;0.17;100.00;97230.13;1739205;82;21509;-68
2022/01/01 09:32:56;;;;;;;18.67;9.73;;;;;;;0.17;100.00;97240.77;1738709;81;21977;-69
2022/01/01 09:35:23;;;;;;;19.73;10.67;;;;;;;0.20;100.00;97232.14;1739225;82;21512;-69
2022/01/01 09:37:50;;;;;;;17.63;8.73;;;;;;;0.21;100.00;97234.59;1739211;82;21010;-70
2022/01/01 09:40:17;;;;;;;19.43;9.97;;;;;;;0.23;100.00;97228.64;1739492;82;21035;-72
2022/01/01 09:42:46;;;;;;;19.33;10.27;;;;;;;0.25;100.00;97223.12;1739388;82;21044;-74
2022/01/01 09:45:14;;;;;;;18.63;9.70;;;;;;;0.28;100.00;97229.42;1739471;82;21012;-72
2022/01/01 09:47:42;;;;;;;18.10;9.67;;;;;;;0.31;100.00;97220.59;1750105;81;21020;-71
2022/01/01 09:50:10;;;;;;;20.00;10.40;;;;;;;0.33;100.00;97213.27;1749891;82;21037;-72
2022/01/01 09:52:39;;;;;;;19.40;9.83;;;;;;;0.37;100.00;97202.63;1739454;82;21044;-72
2022/01/01 09:55:07;;;;;;;17.77;9.23;;;;;;;0.41;100.00;97211.56;1750215;81;21060;-71
2022/01/01 09:57:36;;;;;;;19.60;10.30;;;;;;;0.42;100.00;97211.90;1750070;81;21016;-71
2022/01/01 10:00:08;;;;;;;19.00;9.20;;;;;;;0.44;100.00;97201.41;1749109;82;21075;-72
2022/01/01 10:02:35;;;;;;;19.42;9.95;;;;;;;0.47;100.00;97197.07;1739433;81;21059;-72
2022/01/01 10:05:05;;;;;;;19.47;10.80;;;;;;;0.49;100.00;97195.05;1739136;81;21025;-69
2022/01/01 10:07:32;;;;;;;19.57;10.20;;;;;;;0.51;100.00;97195.73;1749769;82;21351;-72
2022/01/01 10:10:18;;;;;;;18.37;10.07;;;;;;;0.53;100.00;97187.08;1738713;82;21567;-72
2022/01/01 10:12:47;;;;;;;19.60;10.73;;;;;;;0.56;100.00;97185.88;1715415;83;21057;-72
2022/01/01 10:15:13;;;;;;;19.00;10.07;;;;;;;0.58;100.00;97182.53;1716032;84;21005;-72
2022/01/01 10:17:41;;;;;;;18.97;10.27;;;;;;;0.61;100.00;97180.04;1715969;84;21598;-73
2022/01/01 10:20:08;;;;;;;18.63;9.87;;;;;;;0.64;100.00;97180.98;1716287;82;21033;-72
2022/01/01 10:22:37;;;;;;;19.57;10.10;;;;;;;0.68;100.00;97176.98;1716102;84;20994;-73
2022/01/01 10:28:01;;;;;;;18.83;9.97;;;;;;;0.72;100.00;97173.77;1663450;86;21030;-73
2022/01/01 10:30:39;;;;;;;19.70;9.63;;;;;;;0.77;100.00;97175.09;1632825;86;21046;-72
2022/01/01 10:33:18;;;;;;;18.53;9.87;;;;;;;0.81;100.00;97162.56;1632648;86;21066;-73
2022/01/01 10:35:47;;;;;;;17.83;10.23;;;;;;;0.84;100.00;97164.05;1555936;92;21100;-73
2022/01/01 10:38:26;;;;;;;18.97;10.07;;;;;;;0.86;100.00;97160.20;1557014;92;21037;-73
2022/01/01 10:41:09;;;;;;;19.10;9.93;;;;;;;0.88;100.00;97151.53;1575058;91;21113;-72
2022/01/01 10:43:44;;;;;;;20.50;11.08;;;;;;;0.92;100.00;97148.00;1533394;94;21078;-71
2022/01/01 10:48:58;;;;;;;19.80;10.30;;;;;;;0.97;100.00;97138.98;1453579;97;21228;-71
2022/01/01 10:51:24;;;;;;;18.07;9.53;;;;;;;0.98;100.00;97131.84;1453669;99;21111;-72
2022/01/01 10:54:01;;;;;;;17.73;10.00;;;;;;;0.99;100.00;97127.64;1453570;97;21686;-73
2022/01/01 10:56:37;;;;;;;20.10;11.17;;;;;;;0.99;100.00;97138.28;1453423;99;21167;-73
2022/01/01 10:59:05;;;;;;;18.60;10.30;;;;;;;1.00;100.00;97135.14;1453777;99;21151;-72
2022/01/01 11:01:33;;;;;;;19.17;10.73;;;;;;;1.01;100.00;97138.11;1453805;99;21590;-71
2022/01/01 11:04:01;;;;;;;21.53;12.07;;;;;;;1.00;100.00;97134.63;1436351;99;21111;-72
2022/01/01 11:06:32;;;;;;;21.67;11.97;;;;;;;1.01;100.00;97128.80;1411255;100;21620;-73
2022/01/01 11:08:59;;;;;;;19.50;10.30;;;;;;;1.01;100.00;97127.47;1416617;101;21090;-72
2022/01/01 11:11:26;;;;;;;17.60;9.80;;;;;;;1.02;100.00;97132.61;1403911;101;21607;-72
2022/01/01 11:13:54;;;;;;;16.93;9.17;;;;;;;1.04;100.00;97123.12;1431680;100;21136;-71
2022/01/01 11:16:21;;;;;;;18.83;10.87;;;;;;;1.06;100.00;97121.09;1431895;100;21093;-71
2022/01/01 11:18:48;;;;;;;19.90;11.63;;;;;;;1.07;100.00;97126.23;1431713;100;21128;-72
2022/01/01 11:21:15;;;;;;;24.97;14.27;;;;;;;1.10;100.00;97117.90;1449030;97;21178;-72
2022/01/01 11:23:42;;;;;;;23.83;14.13;;;;;;;1.14;100.00;97116.52;1449843;99;21119;-74
2022/01/01 11:26:09;;;;;;;22.63;13.20;;;;;;;1.19;100.00;97119.13;1437371;99;21115;-72
2022/01/01 11:28:37;;;;;;;22.57;12.87;;;;;;;1.25;100.00;97111.75;1437603;100;21172;-73
2022/01/01 11:31:09;;;;;;;29.23;16.93;;;;;;;1.29;100.00;97107.22;1438933;98;21072;-72